sensor_id;sensor_type;location;lat;lon;timestamp;pressure;altitude;pressure_sealevel;temperature;humidity
69245;BME280;56357;52.304;4.870;2022-12-18T00:02:02;103009.25;;;14.06;45.34
69245;BME280;56357;52.304;4.870;2022-12-18T00:04:29;103004.47;;;14.00;45.49
69245;BME280;56357;52.304;4.870;2022-12-18T00:06:55;103002.59;;;14.07;45.27
69245;BME280;56357;52.304;4.870;2022-12-18T00:09:22;102986.31;;;14.04;45.39
69245;BME280;56357;52.304;4.870;2022-12-18T00:11:48;102982.84;;;14.02;45.47
69245;BME280;56357;52.304;4.870;2022-12-18T00:14:15;102986.50;;;14.02;45.19
69245;BME280;56357;52.304;4.870;2022-12-18T00:16:45;102993.56;;;14.05;45.09
69245;BME280;56357;52.304;4.870;2022-12-18T00:19:13;102990.13;;;14.03;45.36
69245;BME280;56357;52.304;4.870;2022-12-18T00:21:41;102995.25;;;13.99;45.35
69245;BME280;56357;52.304;4.870;2022-12-18T00:24:09;102997.81;;;14.01;45.23
69245;BME280;56357;52.304;4.870;2022-12-18T00:26:37;103000.16;;;13.97;45.22
69245;BME280;56357;52.304;4.870;2022-12-18T00:29:07;103001.59;;;13.87;45.68
69245;BME280;56357;52.304;4.870;2022-12-18T00:31:34;103006.34;;;13.93;45.11
69245;BME280;56357;52.304;4.870;2022-12-18T00:34:01;102988.13;;;13.90;45.06
69245;BME280;56357;52.304;4.870;2022-12-18T00:36:30;102993.22;;;13.87;45.24
69245;BME280;56357;52.304;4.870;2022-12-18T00:38:59;102997.50;;;13.89;45.24
69245;BME280;56357;52.304;4.870;2022-12-18T00:41:26;102993.81;;;13.82;45.39
69245;BME280;56357;52.304;4.870;2022-12-18T00:44:13;103005.38;;;13.79;45.16
69245;BME280;56357;52.304;4.870;2022-12-18T00:46:42;102997.59;;;13.74;45.74
69245;BME280;56357;52.304;4.870;2022-12-18T00:49:08;102995.03;;;13.73;45.26
69245;BME280;56357;52.304;4.870;2022-12-18T00:51:35;102984.09;;;13.71;45.32
69245;BME280;56357;52.304;4.870;2022-12-18T00:54:03;102989.66;;;13.71;45.33
69245;BME280;56357;52.304;4.870;2022-12-18T00:56:30;102978.25;;;13.66;45.60
69245;BME280;56357;52.304;4.870;2022-12-18T00:58:56;102990.25;;;13.67;45.39
69245;BME280;56357;52.304;4.870;2022-12-18T01:01:23;102995.81;;;13.67;45.30
69245;BME280;56357;52.304;4.870;2022-12-18T01:03:49;102996.88;;;13.66;45.33
69245;BME280;56357;52.304;4.870;2022-12-18T01:06:16;102991.50;;;13.64;45.43
69245;BME280;56357;52.304;4.870;2022-12-18T01:08:43;102988.94;;;13.63;45.31
69245;BME280;56357;52.304;4.870;2022-12-18T01:11:12;102993.63;;;13.62;45.12
69245;BME280;56357;52.304;4.870;2022-12-18T01:13:39;102991.06;;;13.61;45.29
69245;BME280;56357;52.304;4.870;2022-12-18T01:16:07;102992.78;;;13.62;45.41
69245;BME280;56357;52.304;4.870;2022-12-18T01:18:34;103000.19;;;13.55;45.43
69245;BME280;56357;52.304;4.870;2022-12-18T01:21:06;102997.41;;;13.55;45.53
69245;BME280;56357;52.304;4.870;2022-12-18T01:23:32;103000.41;;;13.53;45.62
69245;BME280;56357;52.304;4.870;2022-12-18T01:26:04;103016.63;;;13.50;44.80
69245;BME280;56357;52.304;4.870;2022-12-18T01:28:31;103012.56;;;13.52;45.35
69245;BME280;56357;52.304;4.870;2022-12-18T01:30:57;103010.00;;;13.51;45.35
69245;BME280;56357;52.304;4.870;2022-12-18T01:33:24;103003.75;;;13.49;45.55
69245;BME280;56357;52.304;4.870;2022-12-18T01:35:50;103003.31;;;13.45;45.48
69245;BME280;56357;52.304;4.870;2022-12-18T01:38:17;103010.78;;;13.45;45.37
69245;BME280;56357;52.304;4.870;2022-12-18T01:40:43;103007.75;;;13.40;45.42
69245;BME280;56357;52.304;4.870;2022-12-18T01:43:09;103007.94;;;13.38;45.33
69245;BME280;56357;52.304;4.870;2022-12-18T01:45:36;103012.66;;;13.38;45.40
69245;BME280;56357;52.304;4.870;2022-12-18T01:48:06;103014.75;;;13.36;45.44
69245;BME280;56357;52.304;4.870;2022-12-18T01:50:40;103011.31;;;13.34;45.35
69245;BME280;56357;52.304;4.870;2022-12-18T01:53:14;103011.31;;;13.34;45.16
69245;BME280;56357;52.304;4.870;2022-12-18T01:56:01;103017.94;;;13.33;45.68
69245;BME280;56357;52.304;4.870;2022-12-18T02:01:02;103020.28;;;13.29;45.11
69245;BME280;56357;52.304;4.870;2022-12-18T02:03:28;103037.13;;;13.28;45.27
69245;BME280;56357;52.304;4.870;2022-12-18T02:17:39;103054.59;;;13.22;45.20
69245;BME280;56357;52.304;4.870;2022-12-18T02:20:19;103049.44;;;13.19;45.22
69245;BME280;56357;52.304;4.870;2022-12-18T02:23:00;103034.88;;;13.17;45.26
69245;BME280;56357;52.304;4.870;2022-12-18T02:28:26;103030.56;;;13.14;44.98
69245;BME280;56357;52.304;4.870;2022-12-18T02:30:56;103027.50;;;13.09;45.23
69245;BME280;56357;52.304;4.870;2022-12-18T02:33:27;103020.69;;;13.12;45.15
69245;BME280;56357;52.304;4.870;2022-12-18T02:35:56;103017.44;;;13.08;45.38
69245;BME280;56357;52.304;4.870;2022-12-18T02:38:25;103008.59;;;13.05;45.37
69245;BME280;56357;52.304;4.870;2022-12-18T02:40:53;103009.47;;;13.05;45.35
69245;BME280;56357;52.304;4.870;2022-12-18T02:43:20;103009.69;;;13.04;45.29
69245;BME280;56357;52.304;4.870;2022-12-18T02:45:52;103006.91;;;13.04;45.17
69245;BME280;56357;52.304;4.870;2022-12-18T02:48:23;102999.41;;;13.04;45.20
69245;BME280;56357;52.304;4.870;2022-12-18T02:51:03;102988.16;;;12.98;45.13
69245;BME280;56357;52.304;4.870;2022-12-18T02:53:44;103001.00;;;12.99;45.18
69245;BME280;56357;52.304;4.870;2022-12-18T02:56:21;102990.75;;;12.99;45.41
69245;BME280;56357;52.304;4.870;2022-12-18T02:59:00;102995.06;;;13.02;44.80
69245;BME280;56357;52.304;4.870;2022-12-18T03:06:50;102985.13;;;12.93;45.05
69245;BME280;56357;52.304;4.870;2022-12-18T03:09:24;102987.22;;;12.91;44.89
69245;BME280;56357;52.304;4.870;2022-12-18T03:11:58;102984.72;;;12.96;45.63
69245;BME280;56357;52.304;4.870;2022-12-18T03:14:45;102974.38;;;12.89;45.22
69245;BME280;56357;52.304;4.870;2022-12-18T03:17:17;102978.22;;;12.88;44.99
69245;BME280;56357;52.304;4.870;2022-12-18T03:19:47;102980.81;;;12.90;45.53
69245;BME280;56357;52.304;4.870;2022-12-18T03:22:16;102982.03;;;12.87;45.51
69245;BME280;56357;52.304;4.870;2022-12-18T03:24:44;102980.34;;;12.86;45.19
69245;BME280;56357;52.304;4.870;2022-12-18T03:27:14;102982.25;;;12.86;45.18
69245;BME280;56357;52.304;4.870;2022-12-18T03:29:56;102983.69;;;12.82;45.35
69245;BME280;56357;52.304;4.870;2022-12-18T03:32:37;102981.09;;;12.80;45.04
69245;BME280;56357;52.304;4.870;2022-12-18T03:35:07;102977.66;;;12.78;45.31
69245;BME280;56357;52.304;4.870;2022-12-18T03:37:34;102971.22;;;12.78;45.42
69245;BME280;56357;52.304;4.870;2022-12-18T03:40:01;102969.53;;;12.77;45.54
69245;BME280;56357;52.304;4.870;2022-12-18T03:42:44;102967.97;;;12.74;45.35
69245;BME280;56357;52.304;4.870;2022-12-18T03:45:25;102958.97;;;12.72;45.28
69245;BME280;56357;52.304;4.870;2022-12-18T03:48:05;102964.78;;;12.77;45.44
69245;BME280;56357;52.304;4.870;2022-12-18T03:53:17;102951.50;;;12.73;45.09
69245;BME280;56357;52.304;4.870;2022-12-18T03:55:50;102953.41;;;12.72;45.44
69245;BME280;56357;52.304;4.870;2022-12-18T03:58:20;102949.38;;;12.75;45.29
69245;BME280;56357;52.304;4.870;2022-12-18T04:00:50;102948.72;;;12.73;45.36
69245;BME280;56357;52.304;4.870;2022-12-18T04:03:19;102925.81;;;12.71;45.50
69245;BME280;56357;52.304;4.870;2022-12-18T04:05:48;102931.56;;;12.69;45.24
69245;BME280;56357;52.304;4.870;2022-12-18T04:08:16;102933.84;;;12.66;45.45
69245;BME280;56357;52.304;4.870;2022-12-18T04:10:43;102927.94;;;12.69;45.74
69245;BME280;56357;52.304;4.870;2022-12-18T04:13:10;102929.63;;;12.70;45.53
69245;BME280;56357;52.304;4.870;2022-12-18T04:15:37;102928.38;;;12.72;45.78
69245;BME280;56357;52.304;4.870;2022-12-18T04:18:04;102932.50;;;12.76;45.67
69245;BME280;56357;52.304;4.870;2022-12-18T04:20:30;102928.28;;;12.80;45.64
69245;BME280;56357;52.304;4.870;2022-12-18T04:22:57;102932.50;;;12.76;45.61
69245;BME280;56357;52.304;4.870;2022-12-18T04:25:23;102936.16;;;12.77;45.56
69245;BME280;56357;52.304;4.870;2022-12-18T04:27:50;102939.59;;;12.79;45.76
69245;BME280;56357;52.304;4.870;2022-12-18T04:30:16;102939.59;;;12.79;46.01
69245;BME280;56357;52.304;4.870;2022-12-18T04:32:43;102951.19;;;12.82;45.91
69245;BME280;56357;52.304;4.870;2022-12-18T04:35:09;102949.44;;;12.81;45.83
69245;BME280;56357;52.304;4.870;2022-12-18T04:37:37;102949.09;;;12.84;45.78
69245;BME280;56357;52.304;4.870;2022-12-18T04:40:03;102952.06;;;12.83;45.74
69245;BME280;56357;52.304;4.870;2022-12-18T04:42:30;102949.09;;;12.84;45.76
69245;BME280;56357;52.304;4.870;2022-12-18T04:44:56;102957.69;;;12.89;45.64
69245;BME280;56357;52.304;4.870;2022-12-18T04:47:23;102958.75;;;12.88;45.38
69245;BME280;56357;52.304;4.870;2022-12-18T04:49:49;102961.53;;;12.88;46.15
69245;BME280;56357;52.304;4.870;2022-12-18T04:52:16;102964.59;;;12.94;45.43
69245;BME280;56357;52.304;4.870;2022-12-18T04:54:42;102978.91;;;12.91;46.06
69245;BME280;56357;52.304;4.870;2022-12-18T04:57:09;102965.81;;;12.91;45.67
69245;BME280;56357;52.304;4.870;2022-12-18T04:59:36;102972.66;;;12.88;46.15
69245;BME280;56357;52.304;4.870;2022-12-18T05:02:02;102973.34;;;12.91;45.88
69245;BME280;56357;52.304;4.870;2022-12-18T05:04:28;102970.56;;;12.91;45.91
69245;BME280;56357;52.304;4.870;2022-12-18T05:06:55;102972.47;;;12.90;45.93
69245;BME280;56357;52.304;4.870;2022-12-18T05:09:22;102972.47;;;12.90;46.03
69245;BME280;56357;52.304;4.870;2022-12-18T05:11:49;102973.34;;;12.91;46.06
69245;BME280;56357;52.304;4.870;2022-12-18T05:14:15;102980.81;;;12.90;45.95
69245;BME280;56357;52.304;4.870;2022-12-18T05:16:41;102979.56;;;12.93;45.58
69245;BME280;56357;52.304;4.870;2022-12-18T05:19:08;102980.22;;;12.95;46.06
69245;BME280;56357;52.304;4.870;2022-12-18T05:21:34;102986.06;;;13.00;45.61
69245;BME280;56357;52.304;4.870;2022-12-18T05:24:01;102990.28;;;12.96;46.08
69245;BME280;56357;52.304;4.870;2022-12-18T05:26:27;102998.41;;;12.97;45.97
69245;BME280;56357;52.304;4.870;2022-12-18T05:28:54;102989.16;;;12.90;46.17
69245;BME280;56357;52.304;4.870;2022-12-18T05:31:20;102987.50;;;12.96;46.22
69245;BME280;56357;52.304;4.870;2022-12-18T05:33:47;102982.34;;;12.93;46.20
69245;BME280;56357;52.304;4.870;2022-12-18T05:36:13;102975.50;;;12.95;45.96
69245;BME280;56357;52.304;4.870;2022-12-18T05:38:40;102966.38;;;13.01;45.43
69245;BME280;56357;52.304;4.870;2022-12-18T05:41:07;102958.91;;;13.02;45.83
69245;BME280;56357;52.304;4.870;2022-12-18T05:43:35;102958.25;;;13.00;45.76
69245;BME280;56357;52.304;4.870;2022-12-18T05:46:06;102960.81;;;13.01;46.10
69245;BME280;56357;52.304;4.870;2022-12-18T05:48:33;102961.53;;;13.03;46.10
69245;BME280;56357;52.304;4.870;2022-12-18T05:51:08;102956.13;;;13.02;46.04
69245;BME280;56357;52.304;4.870;2022-12-18T05:53:35;102946.38;;;13.06;46.25
69245;BME280;56357;52.304;4.870;2022-12-18T05:56:07;102948.00;;;13.00;46.28
69245;BME280;56357;52.304;4.870;2022-12-18T05:58:34;102951.25;;;13.04;46.12
69245;BME280;56357;52.304;4.870;2022-12-18T06:01:10;102948.81;;;13.01;46.19
69245;BME280;56357;52.304;4.870;2022-12-18T06:03:36;102942.22;;;13.02;46.01
69245;BME280;56357;52.304;4.870;2022-12-18T06:06:03;102945.50;;;13.05;45.92
69245;BME280;56357;52.304;4.870;2022-12-18T06:08:30;102940.88;;;12.98;45.99
69245;BME280;56357;52.304;4.870;2022-12-18T06:10:56;102938.38;;;13.03;45.87
69245;BME280;56357;52.304;4.870;2022-12-18T06:13:23;102944.25;;;13.08;46.07
69245;BME280;56357;52.304;4.870;2022-12-18T06:15:49;102958.75;;;13.03;46.38
69245;BME280;56357;52.304;4.870;2022-12-18T06:18:15;102955.38;;;13.08;45.88
69245;BME280;56357;52.304;4.870;2022-12-18T06:20:42;102954.50;;;13.07;45.84
69245;BME280;56357;52.304;4.870;2022-12-18T06:23:08;102949.81;;;13.08;46.32
69245;BME280;56357;52.304;4.870;2022-12-18T06:25:37;102953.47;;;13.08;45.97
69245;BME280;56357;52.304;4.870;2022-12-18T06:28:04;102951.94;;;13.06;46.04
69245;BME280;56357;52.304;4.870;2022-12-18T06:30:30;102934.63;;;13.10;46.33
69245;BME280;56357;52.304;4.870;2022-12-18T06:32:57;102926.69;;;13.07;46.25
69245;BME280;56357;52.304;4.870;2022-12-18T06:35:23;102915.16;;;13.10;46.13
69245;BME280;56357;52.304;4.870;2022-12-18T06:37:50;102904.31;;;13.15;46.13
69245;BME280;56357;52.304;4.870;2022-12-18T06:40:16;102896.84;;;13.16;45.89
69245;BME280;56357;52.304;4.870;2022-12-18T06:42:43;102883.09;;;13.14;46.30
69245;BME280;56357;52.304;4.870;2022-12-18T06:45:09;102887.00;;;13.20;46.65
69245;BME280;56357;52.304;4.870;2022-12-18T06:47:37;102885.88;;;13.14;46.61
69245;BME280;56357;52.304;4.870;2022-12-18T06:50:03;102882.28;;;13.14;47.19
69245;BME280;56357;52.304;4.870;2022-12-18T06:52:31;102888.28;;;13.17;46.91
69245;BME280;56357;52.304;4.870;2022-12-18T06:54:58;102887.44;;;13.17;46.74
69245;BME280;56357;52.304;4.870;2022-12-18T06:57:25;102886.38;;;13.18;47.02
69245;BME280;56357;52.304;4.870;2022-12-18T06:59:51;102881.88;;;13.17;46.86
69245;BME280;56357;52.304;4.870;2022-12-18T07:02:18;102874.19;;;13.19;46.36
69245;BME280;56357;52.304;4.870;2022-12-18T07:04:44;102873.97;;;13.20;46.89
69245;BME280;56357;52.304;4.870;2022-12-18T07:07:10;102880.31;;;13.14;46.68
69245;BME280;56357;52.304;4.870;2022-12-18T07:09:37;102887.00;;;13.20;46.81
69245;BME280;56357;52.304;4.870;2022-12-18T07:12:03;102892.56;;;13.20;46.95
69245;BME280;56357;52.304;4.870;2022-12-18T07:14:30;102893.53;;;13.27;46.62
69245;BME280;56357;52.304;4.870;2022-12-18T07:16:56;102881.00;;;13.16;47.05
69245;BME280;56357;52.304;4.870;2022-12-18T07:19:23;102886.09;;;13.13;46.41
69245;BME280;56357;52.304;4.870;2022-12-18T07:21:50;102878.81;;;13.12;46.38
69245;BME280;56357;52.304;4.870;2022-12-18T07:24:16;102874.59;;;13.16;46.29
69245;BME280;56357;52.304;4.870;2022-12-18T07:26:45;102867.69;;;13.12;46.50
69245;BME280;56357;52.304;4.870;2022-12-18T07:29:12;102856.38;;;13.13;46.35
69245;BME280;56357;52.304;4.870;2022-12-18T07:31:39;102851.47;;;13.15;46.17
69245;BME280;56357;52.304;4.870;2022-12-18T07:34:10;102848.88;;;13.14;46.32
69245;BME280;56357;52.304;4.870;2022-12-18T07:36:36;102839.88;;;13.12;46.39
69245;BME280;56357;52.304;4.870;2022-12-18T07:39:02;102827.53;;;13.21;45.92
69245;BME280;56357;52.304;4.870;2022-12-18T07:41:29;102829.88;;;13.17;46.15
69245;BME280;56357;52.304;4.870;2022-12-18T07:43:55;102820.91;;;13.22;46.59
69245;BME280;56357;52.304;4.870;2022-12-18T07:46:22;102811.31;;;13.24;46.60
69245;BME280;56357;52.304;4.870;2022-12-18T07:48:49;102797.19;;;13.26;46.75
69245;BME280;56357;52.304;4.870;2022-12-18T07:51:16;102795.72;;;13.30;46.73
69245;BME280;56357;52.304;4.870;2022-12-18T07:53:42;102796.81;;;13.29;46.88
69245;BME280;56357;52.304;4.870;2022-12-18T07:56:10;102791.69;;;13.32;46.86
69245;BME280;56357;52.304;4.870;2022-12-18T07:58:37;102800.28;;;13.37;46.70
69245;BME280;56357;52.304;4.870;2022-12-18T08:01:08;102811.38;;;13.31;47.25
69245;BME280;56357;52.304;4.870;2022-12-18T08:03:35;102821.03;;;13.35;46.99
69245;BME280;56357;52.304;4.870;2022-12-18T08:06:04;102825.38;;;13.44;47.05
69245;BME280;56357;52.304;4.870;2022-12-18T08:08:32;102829.44;;;13.41;47.47
69245;BME280;56357;52.304;4.870;2022-12-18T08:10:59;102831.75;;;13.38;47.28
69245;BME280;56357;52.304;4.870;2022-12-18T08:13:25;102840.97;;;13.38;47.82
69245;BME280;56357;52.304;4.870;2022-12-18T08:16:03;102840.63;;;13.48;47.49
69245;BME280;56357;52.304;4.870;2022-12-18T08:18:33;102836.28;;;13.39;47.78
69245;BME280;56357;52.304;4.870;2022-12-18T08:21:15;102835.41;;;13.38;47.67
69245;BME280;56357;52.304;4.870;2022-12-18T08:23:43;102832.84;;;13.37;47.57
69245;BME280;56357;52.304;4.870;2022-12-18T08:26:12;102844.22;;;13.42;46.93
69245;BME280;56357;52.304;4.870;2022-12-18T08:28:40;102846.56;;;13.45;47.31
69245;BME280;56357;52.304;4.870;2022-12-18T08:31:07;102850.00;;;13.47;47.48
69245;BME280;56357;52.304;4.870;2022-12-18T08:33:35;102834.63;;;13.51;46.87
69245;BME280;56357;52.304;4.870;2022-12-18T08:36:05;102828.25;;;13.57;47.15
69245;BME280;56357;52.304;4.870;2022-12-18T08:38:32;102816.03;;;13.51;47.43
69245;BME280;56357;52.304;4.870;2022-12-18T08:43:26;102812.44;;;13.57;48.50
69245;BME280;56357;52.304;4.870;2022-12-18T08:46:11;102815.44;;;13.62;47.88
69245;BME280;56357;52.304;4.870;2022-12-18T08:48:37;102823.16;;;13.60;47.42
69245;BME280;56357;52.304;4.870;2022-12-18T08:51:04;102822.50;;;13.58;48.06
69245;BME280;56357;52.304;4.870;2022-12-18T08:53:31;102817.34;;;13.55;48.77
69245;BME280;56357;52.304;4.870;2022-12-18T08:55:57;102818.03;;;13.64;48.90
69245;BME280;56357;52.304;4.870;2022-12-18T08:58:24;102818.94;;;13.71;48.51
69245;BME280;56357;52.304;4.870;2022-12-18T09:00:50;102818.09;;;13.70;48.56
69245;BME280;56357;52.304;4.870;2022-12-18T09:03:18;102830.53;;;13.74;48.34
69245;BME280;56357;52.304;4.870;2022-12-18T09:05:48;102823.22;;;13.73;49.05
69245;BME280;56357;52.304;4.870;2022-12-18T09:08:14;102834.22;;;13.82;48.25
69245;BME280;56357;52.304;4.870;2022-12-18T09:10:43;102832.28;;;13.82;48.59
69245;BME280;56357;52.304;4.870;2022-12-18T09:13:12;102840.06;;;13.87;48.21
69245;BME280;56357;52.304;4.870;2022-12-18T09:15:43;102833.16;;;13.83;47.60
69245;BME280;56357;52.304;4.870;2022-12-18T09:18:10;102824.19;;;13.87;47.41
69245;BME280;56357;52.304;4.870;2022-12-18T09:20:37;102802.97;;;13.86;47.75
69245;BME280;56357;52.304;4.870;2022-12-18T09:23:07;102809.19;;;13.88;48.13
69245;BME280;56357;52.304;4.870;2022-12-18T09:25:35;102814.78;;;13.95;48.03
69245;BME280;56357;52.304;4.870;2022-12-18T09:28:09;102808.59;;;13.93;48.55
69245;BME280;56357;52.304;4.870;2022-12-18T09:30:40;102801.34;;;13.98;47.97
69245;BME280;56357;52.304;4.870;2022-12-18T09:33:07;102802.81;;;14.01;48.17
69245;BME280;56357;52.304;4.870;2022-12-18T09:35:38;102805.16;;;13.97;48.35
69245;BME280;56357;52.304;4.870;2022-12-18T09:38:06;102803.69;;;14.01;47.63
69245;BME280;56357;52.304;4.870;2022-12-18T09:40:42;102809.06;;;14.03;48.15
69245;BME280;56357;52.304;4.870;2022-12-18T09:43:16;102808.44;;;14.07;48.02
69245;BME280;56357;52.304;4.870;2022-12-18T09:45:47;102797.78;;;14.17;48.46
69245;BME280;56357;52.304;4.870;2022-12-18T09:48:21;102781.47;;;14.14;48.60
69245;BME280;56357;52.304;4.870;2022-12-18T09:50:50;102766.66;;;14.07;48.85
69245;BME280;56357;52.304;4.870;2022-12-18T09:53:26;102748.69;;;14.16;49.04
69245;BME280;56357;52.304;4.870;2022-12-18T09:55:54;102753.84;;;14.19;48.25
69245;BME280;56357;52.304;4.870;2022-12-18T09:58:41;102762.81;;;14.15;48.18
69245;BME280;56357;52.304;4.870;2022-12-18T10:01:14;102782.78;;;14.18;48.29
69245;BME280;56357;52.304;4.870;2022-12-18T10:03:42;102788.34;;;14.18;48.12
69245;BME280;56357;52.304;4.870;2022-12-18T10:06:15;102794.16;;;14.23;48.14
69245;BME280;56357;52.304;4.870;2022-12-18T10:11:51;102788.84;;;14.28;48.10
69245;BME280;56357;52.304;4.870;2022-12-18T10:14:29;102784.97;;;14.29;47.69
69245;BME280;56357;52.304;4.870;2022-12-18T10:18:22;102782.66;;;14.33;49.55
69245;BME280;56357;52.304;4.870;2022-12-18T10:23:33;102773.66;;;14.31;47.89
69245;BME280;56357;52.304;4.870;2022-12-18T10:26:06;102778.13;;;14.32;47.83
69245;BME280;56357;52.304;4.870;2022-12-18T10:28:38;102777.75;;;14.35;48.10
69245;BME280;56357;52.304;4.870;2022-12-18T10:31:07;102774.09;;;14.34;48.17
69245;BME280;56357;52.304;4.870;2022-12-18T10:33:38;102767.44;;;14.35;47.82
69245;BME280;56357;52.304;4.870;2022-12-18T10:36:04;102764.88;;;14.40;47.64
69245;BME280;56357;52.304;4.870;2022-12-18T10:38:32;102771.13;;;14.42;47.23
69245;BME280;56357;52.304;4.870;2022-12-18T10:41:01;102760.81;;;14.43;46.83
69245;BME280;56357;52.304;4.870;2022-12-18T10:43:38;102767.25;;;14.43;47.01
69245;BME280;56357;52.304;4.870;2022-12-18T10:51:30;102731.00;;;14.43;46.99
69245;BME280;56357;52.304;4.870;2022-12-18T10:54:04;102729.94;;;14.44;47.18
69245;BME280;56357;52.304;4.870;2022-12-18T10:56:34;102727.38;;;14.49;47.30
69245;BME280;56357;52.304;4.870;2022-12-18T10:59:04;102728.88;;;14.45;47.64
69245;BME280;56357;52.304;4.870;2022-12-18T11:01:58;102717.28;;;14.48;47.69
69245;BME280;56357;52.304;4.870;2022-12-18T11:04:26;102711.50;;;14.50;48.24
69245;BME280;56357;52.304;4.870;2022-12-18T11:07:01;102716.03;;;14.57;48.08
69245;BME280;56357;52.304;4.870;2022-12-18T11:11:59;102708.72;;;14.56;48.40
69245;BME280;56357;52.304;4.870;2022-12-18T11:14:33;102710.66;;;14.56;48.27
69245;BME280;56357;52.304;4.870;2022-12-18T11:17:00;102706.59;;;14.65;48.20
69245;BME280;56357;52.304;4.870;2022-12-18T11:19:39;102705.09;;;14.69;48.73
69245;BME280;56357;52.304;4.870;2022-12-18T11:22:25;102708.31;;;14.86;48.66
69245;BME280;56357;52.304;4.870;2022-12-18T11:25:02;102704.88;;;14.84;48.85
69245;BME280;56357;52.304;4.870;2022-12-18T11:27:31;102703.19;;;14.83;49.13
69245;BME280;56357;52.304;4.870;2022-12-18T11:32:45;102700.16;;;14.78;49.08
69245;BME280;56357;52.304;4.870;2022-12-18T11:38:04;102692.22;;;14.75;47.18
69245;BME280;56357;52.304;4.870;2022-12-18T11:40:35;102688.81;;;14.73;47.11
69245;BME280;56357;52.304;4.870;2022-12-18T11:46:26;102667.09;;;14.81;47.95
69245;BME280;56357;52.304;4.870;2022-12-18T11:49:18;102657.25;;;14.85;48.30
69245;BME280;56357;52.304;4.870;2022-12-18T11:52:19;102648.22;;;14.83;48.14
69245;BME280;56357;52.304;4.870;2022-12-18T11:54:51;102646.09;;;14.79;48.77
69245;BME280;56357;52.304;4.870;2022-12-18T12:00:18;102610.47;;;14.87;48.13
69245;BME280;56357;52.304;4.870;2022-12-18T12:03:10;102619.06;;;14.92;47.48
69245;BME280;56357;52.304;4.870;2022-12-18T12:08:41;102603.81;;;14.95;45.51
69245;BME280;56357;52.304;4.870;2022-12-18T12:11:35;102608.13;;;14.91;45.84
69245;BME280;56357;52.304;4.870;2022-12-18T12:16:58;102607.47;;;15.02;45.67
69245;BME280;56357;52.304;4.870;2022-12-18T12:19:48;102604.44;;;14.97;45.89
69245;BME280;56357;52.304;4.870;2022-12-18T12:22:36;102609.38;;;15.01;46.11
69245;BME280;56357;52.304;4.870;2022-12-18T12:25:36;102607.03;;;14.98;46.09
69245;BME280;56357;52.304;4.870;2022-12-18T12:33:55;102576.31;;;15.05;46.40
69245;BME280;56357;52.304;4.870;2022-12-18T12:36:42;102583.16;;;15.15;48.01
69245;BME280;56357;52.304;4.870;2022-12-18T12:39:15;102577.78;;;15.14;47.83
69245;BME280;56357;52.304;4.870;2022-12-18T12:41:45;102574.56;;;15.17;47.06
69245;BME280;56357;52.304;4.870;2022-12-18T12:44:34;102569.63;;;15.19;47.05
69245;BME280;56357;52.304;4.870;2022-12-18T12:47:13;102577.94;;;15.25;46.94
69245;BME280;56357;52.304;4.870;2022-12-18T12:49:45;102577.53;;;15.28;47.58
69245;BME280;56357;52.304;4.870;2022-12-18T12:52:25;102571.31;;;15.26;47.26
69245;BME280;56357;52.304;4.870;2022-12-18T12:54:55;102578.59;;;15.34;47.17
69245;BME280;56357;52.304;4.870;2022-12-18T12:57:35;102561.44;;;15.30;47.71
69245;BME280;56357;52.304;4.870;2022-12-18T13:00:16;102564.41;;;15.42;47.25
69245;BME280;56357;52.304;4.870;2022-12-18T13:06:02;102559.03;;;15.34;47.66
69245;BME280;56357;52.304;4.870;2022-12-18T13:08:34;102557.53;;;15.38;47.38
69245;BME280;56357;52.304;4.870;2022-12-18T13:11:30;102543.09;;;15.41;47.65
69245;BME280;56357;52.304;4.870;2022-12-18T13:14:24;102538.41;;;15.48;47.25
69245;BME280;56357;52.304;4.870;2022-12-18T13:17:16;102537.53;;;15.47;47.37
69245;BME280;56357;52.304;4.870;2022-12-18T13:19:43;102535.38;;;15.49;47.61
69245;BME280;56357;52.304;4.870;2022-12-18T13:22:45;102531.28;;;15.52;47.46
69245;BME280;56357;52.304;4.870;2022-12-18T13:25:33;102526.53;;;15.59;47.07
69245;BME280;56357;52.304;4.870;2022-12-18T13:28:00;102512.56;;;15.59;47.44
69245;BME280;56357;52.304;4.870;2022-12-18T13:41:25;102479.97;;;15.46;47.67
69245;BME280;56357;52.304;4.870;2022-12-18T13:44:10;102481.97;;;15.33;48.15
69245;BME280;56357;52.304;4.870;2022-12-18T13:46:47;102478.28;;;15.45;47.80
69245;BME280;56357;52.304;4.870;2022-12-18T13:51:43;102476.09;;;15.47;47.99
69245;BME280;56357;52.304;4.870;2022-12-18T13:54:21;102478.91;;;15.41;48.05
69245;BME280;56357;52.304;4.870;2022-12-18T13:56:50;102460.06;;;15.36;48.15
69245;BME280;56357;52.304;4.870;2022-12-18T14:04:27;102468.13;;;15.51;47.98
69245;BME280;56357;52.304;4.870;2022-12-18T14:07:15;102462.38;;;15.46;48.15
69245;BME280;56357;52.304;4.870;2022-12-18T14:09:45;102456.72;;;15.52;47.94
69245;BME280;56357;52.304;4.870;2022-12-18T14:12:34;102455.44;;;15.55;48.14
69245;BME280;56357;52.304;4.870;2022-12-18T14:15:39;102452.50;;;15.43;48.35
69245;BME280;56357;52.304;4.870;2022-12-18T14:18:25;102454.81;;;15.53;48.46
69245;BME280;56357;52.304;4.870;2022-12-18T14:20:57;102451.78;;;15.54;48.78
69245;BME280;56357;52.304;4.870;2022-12-18T14:25:59;102448.31;;;15.59;49.29
69245;BME280;56357;52.304;4.870;2022-12-18T14:28:25;102438.66;;;15.62;48.74
69245;BME280;56357;52.304;4.870;2022-12-18T14:30:52;102439.78;;;15.54;49.08
69245;BME280;56357;52.304;4.870;2022-12-18T14:33:27;102430.28;;;15.62;49.48
69245;BME280;56357;52.304;4.870;2022-12-18T14:35:58;102423.06;;;15.47;50.07
69245;BME280;56357;52.304;4.870;2022-12-18T14:38:27;102428.63;;;15.54;50.39
69245;BME280;56357;52.304;4.870;2022-12-18T14:40:58;102409.19;;;15.66;48.01